If you wish to contribute or participate in the discussions about articles you are invited to join SKYbrary as a registered user

 Actions

Carson Airport

From SKYbrary Wiki

KCXP
Airport
ICAO: KCXP
Summary
Name Carson Airport
Region North America
Territory United States US.gif
Location Carson, Nevada
Serving
Coordinates 39° 11' 29.67" N, 119° 44' 8.64" W
Runways
Designator Length Width Surface ROPS
9/27 1800 m5,905.512 ft
23 m75.459 ft
ASP no/no


METAR
Observation KCXP 150635Z AUTO VRB04KT 10SM CLR 19/M03 A3006 RMK AO2
Station CARSON CITY
Date/Time 15 September 2019 06:35:00
Wind direction °
Wind speed 04 kts
Lowest cloud amount n/a
Temperature 19°C
Dew point
Humidity 22%
QNH hPa
Weather condition n/a

RE
Tag(s) Hot and High Operations

Carson Airport

ICAO: KCXP IATA: HSH

Description

Carson Airport, also known as Carson City Airport, is a public use airport located 6 km3.24 nm
6,000 m
19,685.039 ft
northeast of the central business district of Carson City, in Ormsby County, Nevada.

Climatology

Semi-arid climate (Köppen climate classification BSk) - Little precipitation, hot summers and cool winters, sometimes with large changes in temperature in a 24 hour period.


Maps

Terrain

Loading map...

Airport Layout

Loading map...


Accidents & Serious Incidents at or in vicinity of KCXP

None on SKYbrary